KSHD

Details ICAO KSHD (SHD)
Name Shenandoah Valley Regional
Region United States
Timezone America/New_York (UTC-5.0)
Plans Departing 17
Arriving 11
Stats Elevation 1,201 ft / 366 m (AMSL)
Location 38.263840° -78.896471°
Runways 1
Magnetic Variation 9.566° W
Sunrise 2017-12-11 12:23:52 UTC / 2017-12-11 07:23:52 Local
Sunset 2017-12-11 21:56:55 UTC / 2017-12-11 16:56:55 Local
Advertisement - Login to hide

Runways

ID Width Length Bearing (true) Bearing (mag) Surface Threshold Offset Overrun Length
05 151 ft / 46 m 5,995 ft / 1,827 m 38.05° 47.62° Asphalt 184 ft / 56 m 0 ft / 0 m
23 151 ft / 46 m 5,995 ft / 1,827 m 218.05° 227.62° Asphalt 157 ft / 48 m 26 ft / 8 m

Approach Navaids

Runway Type Ident Frequency Range Bearing (true) Bearing (mag) Slope Elevation
05 Localiser ISHD 109.50 MHz 18 nm / 33 km 38.14° 47.70° - 1,201 ft / 366 m (AMSL)
05 Glidescope ISHD 109.50 MHz 10 nm / 19 km 38.05° 47.61° 3.00° 1,178 ft / 359 m (AMSL)

Map

Weather


0- 5 10 15 20 25 30 35+ Temperature / ° C

Clouds and Precipitation
Forecast for 2017-12-11 06:00 UTC. Updated an hour ago

Ground ~20,000 ft ~40,000 ft Winds

METAR

KSHD 110555Z AUTO 20007KT 10SM CLR 00/M07 A3000 RMK AO2 T00001070 10010 21002 400251049

TAF

Not found

Frequencies

Recorded 124.92 MHz AWOS 3
Approach 132.85 MHz POTOMAC APP/DEP
Unicom 123.00 MHz CTAF/UNICOM
Warning: Do not use this data for real-world aviation or navigation. No guarantee of current accuracy is given.